Time;durP1;ratioP1;P1;durP2;ratioP2;P2;SDS_P1;SDS_P2;PMS_P1;PMS_P2;Temp;Humidity;BMP_temperature;BMP_pressure;BME280_temperature;BME280_humidity;BME280_pressure;Samples;Min_cycle;Max_cycle;Signal;HPM_P1;HPM_P2
2023/07/07 00:01:09;;;;;;;9.13;5.13;;;14.40;99.90;;;;;;5011770;28;20083;-71
2023/07/07 00:03:35;;;;;;;9.13;4.65;;;14.40;99.90;;;;;;5025061;28;20038;-71
2023/07/07 00:06:02;;;;;;;9.23;3.95;;;14.30;99.90;;;;;;5022995;28;20449;-71
2023/07/07 00:08:28;;;;;;;9.23;4.03;;;14.30;99.90;;;;;;5014019;28;20041;-71
2023/07/07 00:10:54;;;;;;;9.70;3.83;;;14.30;99.90;;;;;;5013628;28;20044;-71
2023/07/07 00:13:20;;;;;;;7.68;3.67;;;14.20;99.90;;;;;;5019085;28;20525;-71
2023/07/07 00:15:46;;;;;;;11.75;4.10;;;14.20;99.90;;;;;;5015508;28;20525;-71
2023/07/07 00:18:14;;;;;;;7.50;3.08;;;14.20;99.90;;;;;;4999313;28;20038;-71
2023/07/07 00:20:41;;;;;;;8.63;3.60;;;14.10;99.90;;;;;;5016661;28;20125;-71
2023/07/07 00:23:07;;;;;;;7.40;3.25;;;14.10;99.90;;;;;;5017902;28;20056;-71
2023/07/07 00:25:33;;;;;;;6.45;2.80;;;14.10;99.90;;;;;;5015923;28;20049;-72
2023/07/07 00:27:59;;;;;;;5.55;2.95;;;14.00;99.90;;;;;;5023499;28;20586;-72
2023/07/07 00:30:25;;;;;;;8.20;3.88;;;14.00;99.90;;;;;;5023260;28;20499;-72
2023/07/07 00:32:50;;;;;;;9.05;3.97;;;14.00;99.90;;;;;;5019162;28;20049;-72
2023/07/07 00:35:16;;;;;;;8.10;3.90;;;14.00;99.90;;;;;;5020939;28;20037;-72
2023/07/07 00:37:45;;;;;;;8.27;3.33;;;13.90;99.90;;;;;;5023005;28;20140;-72
2023/07/07 00:40:12;;;;;;;9.65;3.60;;;13.90;99.90;;;;;;5019287;28;20429;-72
2023/07/07 00:42:38;;;;;;;6.38;3.30;;;13.90;99.90;;;;;;5014137;28;20094;-70
2023/07/07 00:45:13;;;;;;;7.20;3.38;;;13.80;99.90;;;;;;5016302;28;20487;-71
2023/07/07 00:48:03;;;;;;;9.32;3.60;;;13.80;99.90;;;;;;5014771;28;20587;-71
2023/07/07 00:50:36;;;;;;;6.75;3.28;;;13.70;99.90;;;;;;5018333;28;20080;-71
2023/07/07 00:53:02;;;;;;;7.07;3.10;;;13.70;99.90;;;;;;5017236;28;20045;-73
2023/07/07 00:55:41;;;;;;;8.20;3.20;;;13.60;99.90;;;;;;5015785;28;20052;-72
2023/07/07 00:58:12;;;;;;;5.93;2.28;;;13.50;99.90;;;;;;5015934;28;20045;-71
2023/07/07 01:00:41;;;;;;;7.53;2.70;;;13.50;99.90;;;;;;5016277;28;20103;-71
2023/07/07 01:03:13;;;;;;;6.22;2.83;;;13.50;99.90;;;;;;5001929;28;20391;-71
2023/07/07 01:05:41;;;;;;;5.90;2.20;;;13.50;99.90;;;;;;5012967;28;20862;-71
2023/07/07 01:08:07;;;;;;;6.68;2.60;;;13.40;99.90;;;;;;5014950;28;20054;-72
2023/07/07 01:10:33;;;;;;;7.78;2.95;;;13.50;99.90;;;;;;5017159;28;20049;-72
2023/07/07 01:12:59;;;;;;;8.60;2.72;;;13.40;99.90;;;;;;5017730;28;20037;-72
2023/07/07 01:15:30;;;;;;;5.43;2.40;;;13.40;99.90;;;;;;5015894;28;20041;-72
2023/07/07 01:18:40;;;;;;;6.90;2.25;;;13.40;99.90;;;;;;5018245;28;20061;-72
2023/07/07 01:21:29;;;;;;;4.68;2.40;;;13.30;99.90;;;;;;4998520;28;20083;-72
2023/07/07 01:24:07;;;;;;;5.72;2.35;;;13.30;99.90;;;;;;5015266;28;20060;-73
2023/07/07 01:26:41;;;;;;;4.90;2.20;;;13.20;99.90;;;;;;5016935;28;20104;-72
2023/07/07 01:29:22;;;;;;;3.85;2.05;;;13.20;99.90;;;;;;5017423;28;20049;-70
2023/07/07 01:32:26;;;;;;;5.32;2.03;;;13.20;99.90;;;;;;5000498;28;20521;-72
2023/07/07 01:34:56;;;;;;;5.28;2.15;;;13.20;99.90;;;;;;5015000;28;20148;-71
2023/07/07 01:37:22;;;;;;;5.82;2.30;;;13.10;99.90;;;;;;5015774;28;20467;-71
2023/07/07 01:39:50;;;;;;;6.82;2.10;;;13.10;99.90;;;;;;5020246;28;20144;-73
2023/07/07 01:42:24;;;;;;;5.68;2.42;;;13.00;99.90;;;;;;5019835;28;20512;-71
2023/07/07 01:44:58;;;;;;;5.38;2.50;;;13.00;99.90;;;;;;5017670;28;20057;-70
2023/07/07 01:47:36;;;;;;;6.13;2.38;;;13.00;99.90;;;;;;5015091;28;20055;-70
2023/07/07 01:50:11;;;;;;;4.78;2.08;;;13.00;99.90;;;;;;5022698;28;20477;-71
2023/07/07 01:52:42;;;;;;;5.03;2.08;;;12.90;99.90;;;;;;5023126;28;20152;-71
2023/07/07 01:55:20;;;;;;;5.43;2.15;;;12.90;99.90;;;;;;5002066;28;20053;-71
2023/07/07 01:57:50;;;;;;;6.30;2.20;;;12.90;99.90;;;;;;5018132;28;20044;-71
2023/07/07 02:00:17;;;;;;;4.50;2.08;;;12.90;99.90;;;;;;5020836;28;20730;-71
2023/07/07 02:02:43;;;;;;;6.53;2.50;;;12.80;99.90;;;;;;5022733;28;20050;-71
2023/07/07 02:05:11;;;;;;;5.60;2.60;;;12.80;99.90;;;;;;5023258;28;20038;-71
2023/07/07 02:07:38;;;;;;;4.80;2.53;;;12.70;99.90;;;;;;5003617;28;20189;-72
2023/07/07 02:10:04;;;;;;;6.70;3.00;;;12.70;99.90;;;;;;5001242;28;20041;-72
2023/07/07 02:12:30;;;;;;;7.03;2.88;;;12.70;99.90;;;;;;5019752;28;20135;-71
2023/07/07 02:14:56;;;;;;;6.80;2.80;;;12.60;99.90;;;;;;5019939;28;20049;-71
2023/07/07 02:17:21;;;;;;;7.40;3.40;;;12.60;99.90;;;;;;5021282;28;20136;-72
2023/07/07 02:19:47;;;;;;;8.55;3.15;;;12.60;99.90;;;;;;5019391;28;21506;-72
2023/07/07 02:22:14;;;;;;;6.35;3.10;;;12.60;99.90;;;;;;5020450;28;20521;-72
2023/07/07 02:24:40;;;;;;;6.45;3.17;;;12.60;99.90;;;;;;5006692;28;20535;-72
2023/07/07 02:27:08;;;;;;;8.45;3.92;;;12.60;99.90;;;;;;5018928;28;20053;-72
2023/07/07 02:29:33;;;;;;;8.38;4.60;;;12.60;99.90;;;;;;5017802;28;20430;-73
2023/07/07 02:31:59;;;;;;;8.20;4.00;;;12.60;99.90;;;;;;5021564;28;20041;-72
2023/07/07 02:34:25;;;;;;;7.80;4.15;;;12.80;99.90;;;;;;5017637;28;20045;-73
2023/07/07 02:36:52;;;;;;;8.70;4.32;;;12.60;99.90;;;;;;5020773;28;20041;-72
2023/07/07 02:39:18;;;;;;;9.98;4.82;;;12.60;99.90;;;;;;5018342;28;20049;-72
2023/07/07 02:41:44;;;;;;;13.18;5.30;;;12.60;99.90;;;;;;5021393;28;20108;-73
2023/07/07 02:44:09;;;;;;;11.73;6.22;;;12.60;99.90;;;;;;5003646;28;20068;-73
2023/07/07 02:46:35;;;;;;;11.68;5.70;;;12.60;99.90;;;;;;5001295;28;20548;-71
2023/07/07 02:49:01;;;;;;;10.95;6.55;;;12.60;99.90;;;;;;4997572;28;20057;-72
2023/07/07 02:51:26;;;;;;;10.88;5.95;;;12.60;99.90;;;;;;5023116;28;20041;-72
2023/07/07 02:53:52;;;;;;;12.68;6.38;;;12.60;99.90;;;;;;5019831;28;20042;-71
2023/07/07 02:56:18;;;;;;;13.82;7.40;;;12.60;99.90;;;;;;5017033;28;20045;-73
2023/07/07 02:58:43;;;;;;;11.18;6.43;;;12.70;99.90;;;;;;5014978;28;20042;-71
2023/07/07 03:01:15;;;;;;;11.75;7.22;;;12.60;99.90;;;;;;5021792;28;20705;-71
2023/07/07 03:03:43;;;;;;;14.73;7.68;;;12.60;99.90;;;;;;5020003;28;20041;-71
2023/07/07 03:06:13;;;;;;;15.00;7.90;;;12.60;99.90;;;;;;5020897;28;20094;-71
2023/07/07 03:08:39;;;;;;;15.85;8.38;;;12.70;99.90;;;;;;5004331;28;20045;-71
2023/07/07 03:11:10;;;;;;;12.77;8.35;;;12.70;99.90;;;;;;5018198;28;20045;-72
2023/07/07 03:13:37;;;;;;;16.10;8.13;;;12.70;99.90;;;;;;5000716;28;20422;-72
2023/07/07 03:16:09;;;;;;;14.35;8.13;;;12.70;99.90;;;;;;5016429;28;20124;-72
2023/07/07 03:18:35;;;;;;;15.23;9.00;;;12.70;99.90;;;;;;5017504;28;20419;-73
2023/07/07 03:21:01;;;;;;;13.90;8.70;;;12.70;99.90;;;;;;5005007;28;20080;-73
2023/07/07 03:23:27;;;;;;;13.18;8.13;;;12.70;99.90;;;;;;5017241;28;20591;-73
2023/07/07 03:25:52;;;;;;;16.73;9.02;;;12.80;99.90;;;;;;5015892;28;20124;-73
2023/07/07 03:28:18;;;;;;;14.85;9.15;;;12.70;99.90;;;;;;5017853;28;20041;-71
2023/07/07 03:30:44;;;;;;;16.90;10.48;;;12.70;99.90;;;;;;5017375;28;20080;-71
2023/07/07 03:33:12;;;;;;;17.00;10.00;;;12.70;99.90;;;;;;5001081;28;20477;-71
2023/07/07 03:35:38;;;;;;;13.65;8.38;;;12.70;99.90;;;;;;5015979;28;20490;-71
2023/07/07 03:38:05;;;;;;;12.93;9.02;;;12.70;99.90;;;;;;5017475;28;20413;-73
2023/07/07 03:40:31;;;;;;;16.40;9.18;;;12.70;99.90;;;;;;5015190;28;20116;-73
2023/07/07 03:42:57;;;;;;;14.30;8.10;;;12.70;99.90;;;;;;5019431;28;20465;-71
2023/07/07 03:45:23;;;;;;;17.63;9.70;;;12.70;99.90;;;;;;5001095;28;20041;-71
2023/07/07 03:47:50;;;;;;;16.38;9.68;;;12.70;99.90;;;;;;5015680;28;20041;-71
2023/07/07 03:50:15;;;;;;;12.70;8.82;;;12.70;99.90;;;;;;5017637;28;20124;-71
2023/07/07 03:52:41;;;;;;;16.65;10.00;;;12.80;99.90;;;;;;5018539;28;20485;-72
2023/07/07 03:55:07;;;;;;;15.07;9.63;;;12.70;99.90;;;;;;5018723;28;20041;-71
2023/07/07 03:57:33;;;;;;;14.95;9.55;;;12.80;99.90;;;;;;5016028;28;20136;-72
2023/07/07 03:59:59;;;;;;;15.20;9.40;;;12.80;99.90;;;;;;4999425;28;20128;-71
2023/07/07 04:02:24;;;;;;;19.27;9.57;;;12.80;99.90;;;;;;5017962;28;20038;-71
2023/07/07 04:04:50;;;;;;;17.15;10.52;;;12.80;99.90;;;;;;5018087;28;20057;-72
2023/07/07 04:07:16;;;;;;;15.93;10.60;;;12.80;99.90;;;;;;5018260;28;20395;-72
2023/07/07 04:09:42;;;;;;;14.30;9.80;;;12.80;99.90;;;;;;5012040;28;20133;-72
2023/07/07 04:12:09;;;;;;;16.15;10.82;;;12.80;99.90;;;;;;5015085;28;20047;-72
2023/07/07 04:14:35;;;;;;;19.55;12.20;;;12.80;99.90;;;;;;5016450;28;20043;-72
2023/07/07 04:17:01;;;;;;;18.80;11.38;;;12.90;99.90;;;;;;5015951;28;20532;-72
2023/07/07 04:19:27;;;;;;;22.17;11.93;;;12.90;99.90;;;;;;5001879;28;20038;-73
2023/07/07 04:21:53;;;;;;;18.10;11.45;;;12.90;99.90;;;;;;5013540;28;20524;-73
2023/07/07 04:24:23;;;;;;;14.70;10.90;;;12.90;99.90;;;;;;5017657;28;20056;-73
2023/07/07 04:26:50;;;;;;;19.43;11.43;;;12.90;99.90;;;;;;5016690;28;20060;-73
2023/07/07 04:29:16;;;;;;;16.85;12.00;;;13.00;99.90;;;;;;5016912;28;20718;-72
2023/07/07 04:31:45;;;;;;;19.38;12.75;;;13.00;99.90;;;;;;5015556;28;20081;-72
2023/07/07 04:34:13;;;;;;;18.98;13.50;;;13.00;99.90;;;;;;5017710;28;20089;-72
2023/07/07 04:36:39;;;;;;;22.42;12.68;;;13.00;99.90;;;;;;5033944;28;20050;-71
2023/07/07 04:39:04;;;;;;;25.20;14.60;;;13.10;99.90;;;;;;5015363;28;20041;-71
2023/07/07 04:41:30;;;;;;;18.42;11.52;;;13.20;99.90;;;;;;5018969;28;20303;-72
2023/07/07 04:43:59;;;;;;;15.75;10.63;;;13.40;99.90;;;;;;5017416;28;20034;-72
2023/07/07 04:46:31;;;;;;;16.10;11.75;;;13.80;99.90;;;;;;5017911;28;20116;-72
2023/07/07 04:48:58;;;;;;;16.48;10.85;;;14.10;99.90;;;;;;5014057;28;20522;-72
2023/07/07 04:51:24;;;;;;;14.98;10.45;;;14.40;99.90;;;;;;5017238;28;20087;-72
2023/07/07 04:53:50;;;;;;;17.30;10.68;;;14.80;99.90;;;;;;5020529;28;20096;-72
2023/07/07 04:56:24;;;;;;;13.50;9.13;;;15.10;99.90;;;;;;5009296;28;20045;-72
2023/07/07 04:58:52;;;;;;;15.20;8.88;;;15.40;99.90;;;;;;4993388;28;20053;-73
2023/07/07 05:01:22;;;;;;;16.13;8.70;;;15.70;99.90;;;;;;5012565;28;20045;-73
2023/07/07 05:03:57;;;;;;;15.90;9.20;;;16.00;99.90;;;;;;5015530;28;20052;-73
2023/07/07 05:06:24;;;;;;;15.10;8.60;;;16.30;99.90;;;;;;5018235;28;20054;-73
2023/07/07 05:08:51;;;;;;;12.90;8.48;;;16.60;99.90;;;;;;5013025;28;20049;-73
2023/07/07 05:11:20;;;;;;;13.50;7.13;;;16.80;99.90;;;;;;5013314;28;20116;-75
2023/07/07 05:13:48;;;;;;;15.63;8.38;;;17.10;99.90;;;;;;5033272;28;20073;-72
2023/07/07 05:16:17;;;;;;;13.55;7.95;;;17.40;99.90;;;;;;5013483;28;20053;-73
2023/07/07 05:18:43;;;;;;;15.93;7.50;;;17.60;99.90;;;;;;5002046;28;20046;-72
2023/07/07 05:21:10;;;;;;;12.32;7.32;;;17.90;99.90;;;;;;5016857;28;20056;-73
2023/07/07 05:23:37;;;;;;;11.95;7.53;;;18.20;99.90;;;;;;5015767;28;20048;-73
2023/07/07 05:26:03;;;;;;;12.70;7.43;;;18.40;99.90;;;;;;5015884;28;20075;-73
2023/07/07 05:28:29;;;;;;;11.10;7.18;;;18.70;99.90;;;;;;5019350;28;20041;-73
2023/07/07 05:30:54;;;;;;;12.82;7.18;;;18.90;99.90;;;;;;5000649;28;20041;-73
2023/07/07 05:33:22;;;;;;;13.38;8.02;;;19.10;99.90;;;;;;5017834;28;20148;-73
2023/07/07 05:35:53;;;;;;;13.23;7.10;;;19.00;99.90;;;;;;5013001;28;20111;-73
2023/07/07 05:38:20;;;;;;;;;;;18.70;99.90;;;;;;5015629;28;20042;-71
2023/07/07 05:40:46;;;;;;;12.80;7.70;;;18.50;99.90;;;;;;5012273;28;20306;-71
2023/07/07 05:43:16;;;;;;;12.85;7.90;;;18.30;99.90;;;;;;5013477;28;20048;-72
2023/07/07 05:45:42;;;;;;;13.23;7.78;;;18.10;99.90;;;;;;5013340;28;20388;-72
2023/07/07 05:48:09;;;;;;;13.45;7.82;;;17.90;99.90;;;;;;5002943;28;20406;-73
2023/07/07 05:50:35;;;;;;;16.50;8.68;;;17.80;99.90;;;;;;4997631;28;20044;-72
2023/07/07 05:53:02;;;;;;;15.77;8.50;;;17.70;99.90;;;;;;5012687;28;20037;-72
2023/07/07 05:55:32;;;;;;;11.82;7.85;;;17.60;99.90;;;;;;5000881;28;20040;-72
2023/07/07 05:57:58;;;;;;;12.57;8.05;;;17.50;99.90;;;;;;5017104;28;20550;-73
2023/07/07 06:00:27;;;;;;;16.70;8.40;;;17.40;99.90;;;;;;5013408;28;20506;-72
2023/07/07 06:02:56;;;;;;;13.15;8.27;;;17.40;99.90;;;;;;5017535;28;20486;-73
2023/07/07 06:05:23;;;;;;;13.70;7.82;;;17.50;99.90;;;;;;5015106;28;20037;-73
2023/07/07 06:07:50;;;;;;;13.07;7.82;;;17.70;99.90;;;;;;5014171;28;20046;-74
2023/07/07 06:10:16;;;;;;;15.25;8.27;;;17.80;99.90;;;;;;5014888;28;20050;-71
2023/07/07 06:12:42;;;;;;;16.85;7.70;;;18.00;99.90;;;;;;5010866;28;20130;-72
2023/07/07 06:15:08;;;;;;;13.00;7.55;;;18.40;99.90;;;;;;5016553;28;20080;-72
2023/07/07 06:17:35;;;;;;;12.73;7.82;;;18.70;99.90;;;;;;5018915;28;20048;-72
2023/07/07 06:20:01;;;;;;;12.73;7.32;;;18.90;99.90;;;;;;5016456;28;20063;-72
2023/07/07 06:22:27;;;;;;;13.43;7.35;;;19.00;99.90;;;;;;4996444;28;20042;-72
2023/07/07 06:24:53;;;;;;;13.80;7.05;;;19.20;99.90;;;;;;5018164;28;20048;-72
2023/07/07 06:27:19;;;;;;;12.02;7.65;;;19.40;99.90;;;;;;5020953;28;20410;-72
2023/07/07 06:29:45;;;;;;;12.80;7.20;;;19.50;99.90;;;;;;5017041;28;20388;-72
2023/07/07 06:32:11;;;;;;;14.43;8.07;;;19.50;99.90;;;;;;5018354;28;20045;-72
2023/07/07 06:34:36;;;;;;;11.15;7.35;;;19.40;99.90;;;;;;5021819;28;20029;-72
2023/07/07 06:37:02;;;;;;;12.85;7.53;;;19.20;99.90;;;;;;5022540;28;20053;-72
2023/07/07 06:39:28;;;;;;;13.40;7.65;;;19.10;99.90;;;;;;5017734;28;20045;-72
2023/07/07 06:41:55;;;;;;;12.38;7.10;;;18.90;99.90;;;;;;5017580;28;20120;-73
2023/07/07 06:44:21;;;;;;;12.05;7.22;;;18.60;99.90;;;;;;5018246;28;20081;-73
2023/07/07 06:46:47;;;;;;;10.85;7.10;;;18.60;99.90;;;;;;5015967;28;20095;-73
2023/07/07 06:49:13;;;;;;;12.45;6.93;;;18.60;99.90;;;;;;5020386;28;20247;-71
2023/07/07 06:51:38;;;;;;;13.45;7.35;;;18.50;99.90;;;;;;5016108;28;20038;-71
2023/07/07 06:54:04;;;;;;;11.32;6.80;;;18.50;99.90;;;;;;5020587;28;20096;-72
2023/07/07 06:56:30;;;;;;;13.05;7.03;;;18.50;99.90;;;;;;5003313;28;20060;-73
2023/07/07 06:58:55;;;;;;;14.07;6.97;;;18.50;99.90;;;;;;5022869;28;20098;-74
2023/07/07 07:01:21;;;;;;;13.32;6.47;;;18.50;99.90;;;;;;5013584;28;20049;-71
2023/07/07 07:03:47;;;;;;;14.23;6.85;;;18.50;99.90;;;;;;5000523;28;20050;-72
2023/07/07 07:06:14;;;;;;;14.40;6.28;;;18.50;99.90;;;;;;5017166;28;20742;-72
2023/07/07 07:08:40;;;;;;;14.77;6.75;;;18.50;99.90;;;;;;4998144;28;20111;-72
2023/07/07 07:11:06;;;;;;;11.77;6.43;;;18.50;99.90;;;;;;5015252;28;20755;-72
2023/07/07 07:13:32;;;;;;;10.88;5.65;;;18.60;99.90;;;;;;5018074;28;20102;-72
2023/07/07 07:15:58;;;;;;;11.70;6.18;;;18.60;99.90;;;;;;5020664;28;20044;-72
2023/07/07 07:18:24;;;;;;;12.32;6.18;;;18.60;99.90;;;;;;5019440;28;20045;-72
2023/07/07 07:20:51;;;;;;;11.73;5.53;;;18.70;99.90;;;;;;5015500;28;20045;-72
2023/07/07 07:23:18;;;;;;;12.60;5.32;;;18.80;99.90;;;;;;5015759;28;20049;-72
2023/07/07 07:25:44;;;;;;;12.80;5.15;;;18.90;99.90;;;;;;5016391;28;20049;-73
2023/07/07 07:28:14;;;;;;;17.58;6.70;;;19.10;99.90;;;;;;5017737;28;20049;-72
2023/07/07 07:30:41;;;;;;;9.43;5.13;;;19.10;99.90;;;;;;5002262;28;20125;-72
2023/07/07 07:33:18;;;;;;;11.40;5.15;;;19.30;99.90;;;;;;5000762;28;20056;-72
2023/07/07 07:35:44;;;;;;;10.43;5.07;;;19.40;99.90;;;;;;5016626;28;20041;-73
2023/07/07 07:38:10;;;;;;;8.38;4.35;;;19.50;99.90;;;;;;5014561;28;20509;-73
2023/07/07 07:40:36;;;;;;;8.40;4.15;;;19.60;99.90;;;;;;5021952;28;20055;-73
2023/07/07 07:43:02;;;;;;;8.15;3.88;;;19.70;99.90;;;;;;5016455;28;20045;-73
2023/07/07 07:45:27;;;;;;;11.75;4.88;;;19.90;99.90;;;;;;5017484;28;20560;-72
2023/07/07 07:47:53;;;;;;;8.40;4.18;;;20.10;99.90;;;;;;5020232;28;20141;-72
2023/07/07 07:50:21;;;;;;;7.63;4.20;;;20.20;99.90;;;;;;5017210;28;20049;-71
2023/07/07 07:52:50;;;;;;;9.55;3.70;;;20.40;99.90;;;;;;5000822;28;20121;-72
2023/07/07 07:55:16;;;;;;;12.23;3.80;;;20.50;99.90;;;;;;5015840;28;20654;-72
2023/07/07 07:57:45;;;;;;;10.60;4.13;;;20.60;99.90;;;;;;5012577;28;20056;-72
2023/07/07 08:00:11;;;;;;;9.13;3.40;;;20.80;99.90;;;;;;5012944;28;20041;-72
2023/07/07 08:02:38;;;;;;;9.32;3.50;;;20.80;99.90;;;;;;5013349;28;20422;-72
2023/07/07 08:05:04;;;;;;;8.85;2.92;;;20.90;99.90;;;;;;5017474;28;20127;-72
2023/07/07 08:07:31;;;;;;;6.95;3.10;;;21.00;99.90;;;;;;5016580;28;20395;-72
2023/07/07 08:09:57;;;;;;;9.00;3.85;;;21.10;99.90;;;;;;4994257;28;20044;-72
2023/07/07 08:12:23;;;;;;;8.70;3.00;;;21.20;99.90;;;;;;5016492;28;20045;-73
2023/07/07 08:14:49;;;;;;;10.82;3.38;;;21.30;99.90;;;;;;5013367;28;20075;-74
2023/07/07 08:17:15;;;;;;;9.88;3.30;;;21.50;99.90;;;;;;5015355;28;20048;-73
2023/07/07 08:19:43;;;;;;;7.28;2.97;;;21.60;99.90;;;;;;5015382;28;20052;-73
2023/07/07 08:22:16;;;;;;;6.40;2.70;;;21.70;99.90;;;;;;5018959;28;20468;-73
2023/07/07 08:24:48;;;;;;;9.50;2.95;;;21.80;99.90;;;;;;5015697;28;20410;-74
2023/07/07 08:27:16;;;;;;;8.13;2.53;;;21.90;99.90;;;;;;5005014;28;20064;-74
2023/07/07 08:29:42;;;;;;;8.32;3.28;;;22.00;99.90;;;;;;5017838;28;20052;-74
2023/07/07 08:32:11;;;;;;;6.03;2.70;;;22.20;99.90;;;;;;5016445;28;20045;-73
2023/07/07 08:34:38;;;;;;;7.32;2.50;;;22.20;99.90;;;;;;5011988;28;20752;-73
2023/07/07 08:37:04;;;;;;;7.40;2.47;;;22.30;99.90;;;;;;5017512;28;20038;-73
2023/07/07 08:39:30;;;;;;;6.95;2.60;;;22.30;99.90;;;;;;5018080;28;20128;-73
2023/07/07 08:42:05;;;;;;;6.63;2.35;;;22.50;99.90;;;;;;5015861;28;21508;-74
2023/07/07 08:44:35;;;;;;;8.13;2.90;;;22.50;99.90;;;;;;5013916;28;20045;-73
2023/07/07 08:47:11;;;;;;;8.35;2.35;;;22.60;99.90;;;;;;5013900;28;20536;-73
2023/07/07 08:49:57;;;;;;;6.65;2.55;;;22.70;99.90;;;;;;5013048;28;20840;-73
2023/07/07 08:52:26;;;;;;;5.93;2.30;;;22.70;99.90;;;;;;5013976;28;20427;-73
2023/07/07 08:55:20;;;;;;;6.63;2.20;;;22.80;99.90;;;;;;5015571;28;20055;-74
2023/07/07 08:57:58;;;;;;;5.88;2.17;;;22.90;99.90;;;;;;5012400;28;20071;-74
2023/07/07 09:00:54;;;;;;;7.35;2.63;;;22.90;99.90;;;;;;5017622;28;20134;-74
2023/07/07 09:03:51;;;;;;;7.53;2.30;;;23.00;99.90;;;;;;5015470;28;20050;-74
2023/07/07 09:06:43;;;;;;;10.18;2.50;;;23.10;99.90;;;;;;5010207;28;20084;-74
2023/07/07 09:09:30;;;;;;;5.95;2.30;;;23.20;99.90;;;;;;4994157;28;20065;-74
2023/07/07 09:12:27;;;;;;;5.35;2.05;;;23.30;99.90;;;;;;5018182;28;20045;-74
2023/07/07 09:14:57;;;;;;;6.53;2.10;;;23.40;99.90;;;;;;5010549;28;20069;-73
2023/07/07 09:17:28;;;;;;;6.00;2.08;;;23.50;99.90;;;;;;5007716;28;20041;-73
2023/07/07 09:20:02;;;;;;;6.00;1.92;;;23.60;99.90;;;;;;4996556;28;20069;-73
2023/07/07 09:22:33;;;;;;;6.43;2.05;;;23.60;99.90;;;;;;5010606;28;20096;-74
2023/07/07 09:25:02;;;;;;;6.65;2.90;;;23.60;99.90;;;;;;5003896;28;20044;-74
2023/07/07 09:27:59;;;;;;;5.18;1.90;;;23.70;99.90;;;;;;5016965;28;20050;-74
2023/07/07 09:30:50;;;;;;;7.68;2.38;;;23.80;99.90;;;;;;4993647;28;20054;-74
2023/07/07 09:33:19;;;;;;;5.05;2.03;;;23.80;99.90;;;;;;5009653;28;20065;-74
2023/07/07 09:35:51;;;;;;;6.53;2.17;;;23.90;99.90;;;;;;5004770;28;20045;-74
2023/07/07 09:38:29;;;;;;;5.28;2.45;;;24.00;99.10;;;;;;5007339;28;20061;-74
2023/07/07 09:41:13;;;;;;;6.15;2.20;;;24.00;97.80;;;;;;5004129;28;20414;-74
2023/07/07 09:43:57;;;;;;;4.78;2.08;;;24.00;99.90;;;;;;5008743;28;20042;-73
2023/07/07 09:46:58;;;;;;;6.68;2.03;;;24.10;99.90;;;;;;5010371;28;20038;-74
2023/07/07 09:49:44;;;;;;;5.22;1.98;;;24.20;99.90;;;;;;5007935;28;20100;-74
2023/07/07 09:52:25;;;;;;;6.43;2.22;;;24.20;99.20;;;;;;5012226;28;20041;-74
2023/07/07 09:54:52;;;;;;;4.95;2.10;;;24.30;99.90;;;;;;5007396;28;20041;-74
2023/07/07 09:57:27;;;;;;;6.30;2.10;;;24.30;99.90;;;;;;5008335;28;20053;-75
2023/07/07 09:59:55;;;;;;;5.30;2.00;;;24.40;99.50;;;;;;5013800;28;20092;-74
2023/07/07 10:02:23;;;;;;;6.93;2.17;;;24.40;98.70;;;;;;5013535;28;20061;-75
2023/07/07 10:04:58;;;;;;;9.48;2.70;;;24.50;99.10;;;;;;5018004;28;20053;-72
2023/07/07 10:07:26;;;;;;;7.32;2.67;;;24.50;97.80;;;;;;5012420;28;20054;-74
2023/07/07 10:09:52;;;;;;;5.07;2.35;;;24.50;98.80;;;;;;5012236;28;20398;-75
2023/07/07 10:12:18;;;;;;;10.00;2.10;;;24.60;97.30;;;;;;5015757;28;20503;-75
2023/07/07 10:14:46;;;;;;;6.03;2.45;;;24.60;97.60;;;;;;5015720;28;20657;-74
2023/07/07 10:18:07;;;;;;;6.85;2.67;;;24.60;97.20;;;;;;5015023;28;20060;-74
2023/07/07 10:20:33;;;;;;;5.57;2.00;;;24.70;98.00;;;;;;5004588;28;20049;-74
2023/07/07 10:22:58;;;;;;;8.02;2.40;;;24.70;98.30;;;;;;5012977;28;20461;-74
2023/07/07 10:25:27;;;;;;;7.00;2.20;;;24.80;97.70;;;;;;5013258;28;20669;-74
2023/07/07 10:27:55;;;;;;;4.25;2.03;;;24.80;98.40;;;;;;5007269;28;20529;-74
2023/07/07 10:30:21;;;;;;;6.60;2.47;;;24.90;98.10;;;;;;5013251;28;20053;-75
2023/07/07 10:32:47;;;;;;;8.20;2.20;;;24.90;97.40;;;;;;5016466;28;20406;-74
2023/07/07 10:35:18;;;;;;;5.07;1.88;;;25.00;97.10;;;;;;5015946;28;20060;-74
2023/07/07 10:37:44;;;;;;;4.50;2.25;;;25.00;96.20;;;;;;5016283;28;20037;-74
2023/07/07 10:40:15;;;;;;;6.72;2.20;;;25.00;96.80;;;;;;5009780;28;20042;-74
2023/07/07 10:42:40;;;;;;;;;;;25.00;96.50;;;;;;5017064;28;20053;-74
2023/07/07 10:45:07;;;;;;;5.65;2.20;;;25.00;95.50;;;;;;5015871;28;20297;-74
2023/07/07 10:47:35;;;;;;;6.38;2.20;;;25.00;94.30;;;;;;4986980;28;20053;-74
2023/07/07 10:50:03;;;;;;;6.40;2.20;;;24.90;96.30;;;;;;5003516;28;20045;-74
2023/07/07 10:52:41;;;;;;;6.57;2.30;;;25.00;93.40;;;;;;5000262;28;20042;-72
2023/07/07 10:55:58;;;;;;;9.05;2.88;;;25.00;95.20;;;;;;4991830;28;20042;-72
2023/07/07 10:58:52;;;;;;;10.43;2.60;;;25.00;94.70;;;;;;5008624;28;20410;-75
2023/07/07 11:01:24;;;;;;;18.58;2.47;;;25.00;94.20;;;;;;5024899;28;20049;-78
2023/07/07 11:04:10;;;;;;;11.88;2.60;;;25.10;96.20;;;;;;5000317;28;20042;-80
2023/07/07 11:06:59;;;;;;;13.88;2.83;;;25.20;95.10;;;;;;4985117;28;20136;-79
2023/07/07 11:09:39;;;;;;;22.45;3.05;;;25.20;94.50;;;;;;5007991;28;20041;-74
2023/07/07 11:12:21;;;;;;;11.00;2.40;;;25.30;95.80;;;;;;5007677;28;20175;-74
2023/07/07 11:15:24;;;;;;;5.65;2.00;;;25.30;94.80;;;;;;5002495;28;20740;-77
2023/07/07 11:17:50;;;;;;;14.23;3.05;;;25.30;94.50;;;;;;5003382;28;20054;-77
2023/07/07 11:20:28;;;;;;;10.95;3.17;;;25.30;94.50;;;;;;4994742;28;20052;-75
2023/07/07 11:22:57;;;;;;;12.43;2.88;;;25.20;95.10;;;;;;5012327;28;20565;-77
2023/07/07 11:25:36;;;;;;;7.57;2.63;;;25.20;95.30;;;;;;5008330;28;20042;-75
2023/07/07 11:28:20;;;;;;;9.45;2.55;;;25.20;95.50;;;;;;5007310;28;20067;-76
2023/07/07 11:31:12;;;;;;;6.82;2.28;;;25.30;95.00;;;;;;5009391;28;20038;-76
2023/07/07 11:33:59;;;;;;;7.63;2.10;;;25.40;93.90;;;;;;5011612;28;20643;-76
2023/07/07 11:36:47;;;;;;;8.15;2.50;;;25.50;93.70;;;;;;5010040;28;20056;-76
2023/07/07 11:39:31;;;;;;;6.38;2.33;;;25.50;93.20;;;;;;5010990;28;20515;-75
2023/07/07 11:41:59;;;;;;;6.55;2.03;;;25.50;93.40;;;;;;5011459;28;20414;-76
2023/07/07 11:44:43;;;;;;;6.13;2.10;;;25.50;93.00;;;;;;5013051;28;20050;-75
2023/07/07 11:47:12;;;;;;;6.32;2.47;;;25.50;93.80;;;;;;5012086;28;20506;-76
2023/07/07 11:50:00;;;;;;;6.07;2.47;;;25.60;94.40;;;;;;5009567;28;20901;-75
2023/07/07 11:53:00;;;;;;;10.65;2.60;;;25.60;93.20;;;;;;4992877;28;20037;-76
2023/07/07 11:55:37;;;;;;;7.43;2.17;;;25.70;93.40;;;;;;5013429;28;20049;-76
2023/07/07 11:58:18;;;;;;;5.70;2.20;;;25.70;94.20;;;;;;5023816;28;20724;-76
2023/07/07 12:01:13;;;;;;;8.70;2.70;;;25.80;92.80;;;;;;5024942;28;20046;-75
2023/07/07 12:03:47;;;;;;;7.78;2.58;;;25.80;93.20;;;;;;4990974;28;20073;-77
2023/07/07 12:06:37;;;;;;;9.00;2.38;;;25.80;93.00;;;;;;5009053;28;20045;-76
2023/07/07 12:09:16;;;;;;;7.90;2.28;;;25.80;93.20;;;;;;5007873;28;20088;-77
2023/07/07 12:11:57;;;;;;;4.80;2.17;;;25.70;92.30;;;;;;5008567;28;20077;-76
2023/07/07 12:15:06;;;;;;;6.22;2.20;;;25.80;93.30;;;;;;5002023;28;21122;-76
2023/07/07 12:17:39;;;;;;;7.57;2.30;;;25.90;91.90;;;;;;5021112;28;20057;-75
2023/07/07 12:20:13;;;;;;;6.10;2.53;;;26.00;92.30;;;;;;5011156;28;20383;-74
2023/07/07 12:22:43;;;;;;;6.97;2.45;;;26.10;93.20;;;;;;5015671;28;20103;-75
2023/07/07 12:25:24;;;;;;;6.30;2.40;;;26.10;93.40;;;;;;5018323;28;20120;-76
2023/07/07 12:27:51;;;;;;;5.82;2.35;;;26.10;91.70;;;;;;5010054;28;20630;-75
2023/07/07 12:30:27;;;;;;;7.00;2.58;;;26.10;91.90;;;;;;5006721;28;20052;-74
2023/07/07 12:32:54;;;;;;;6.72;2.58;;;26.10;91.60;;;;;;4988402;28;20091;-75
2023/07/07 12:35:28;;;;;;;7.35;2.42;;;26.20;91.70;;;;;;5010736;28;20121;-75
2023/07/07 12:37:56;;;;;;;6.53;2.63;;;26.20;91.30;;;;;;5010723;28;20053;-73
2023/07/07 12:40:23;;;;;;;7.07;2.60;;;26.30;91.80;;;;;;5010476;28;20038;-75
2023/07/07 12:43:18;;;;;;;5.55;2.20;;;26.30;92.20;;;;;;5008985;28;20120;-75
2023/07/07 12:45:46;;;;;;;5.20;2.70;;;26.40;91.20;;;;;;5011762;28;20080;-75
2023/07/07 12:48:19;;;;;;;9.40;2.47;;;26.40;91.20;;;;;;4993610;28;20118;-79
2023/07/07 12:50:47;;;;;;;7.10;2.28;;;26.40;91.50;;;;;;5011769;28;20056;-75
2023/07/07 12:53:22;;;;;;;5.10;2.28;;;26.50;91.50;;;;;;4995842;28;20072;-76
2023/07/07 12:56:06;;;;;;;6.63;2.53;;;26.50;91.00;;;;;;5005583;28;20513;-75
2023/07/07 12:58:55;;;;;;;6.35;2.63;;;26.50;90.60;;;;;;5007032;28;20048;-76
2023/07/07 13:01:34;;;;;;;6.85;2.58;;;26.60;90.90;;;;;;5008403;28;20121;-76
2023/07/07 13:04:08;;;;;;;4.18;2.05;;;26.60;90.00;;;;;;5010861;28;20124;-75